sensor_id;sensor_type;location;lat;lon;timestamp;temperature;humidity
50556;DHT22;36508;52.512;13.450;2022-07-19T00:00:19;21.80;97.20
50556;DHT22;36508;52.512;13.450;2022-07-19T00:02:44;21.70;97.30
50556;DHT22;36508;52.512;13.450;2022-07-19T00:05:12;21.70;97.50
50556;DHT22;36508;52.512;13.450;2022-07-19T00:07:39;21.60;97.50
50556;DHT22;36508;52.512;13.450;2022-07-19T00:10:07;21.60;97.70
50556;DHT22;36508;52.512;13.450;2022-07-19T00:12:33;21.50;97.80
50556;DHT22;36508;52.512;13.450;2022-07-19T00:14:59;21.50;98.00
50556;DHT22;36508;52.512;13.450;2022-07-19T00:17:25;21.40;98.00
50556;DHT22;36508;52.512;13.450;2022-07-19T00:19:50;21.40;98.20
50556;DHT22;36508;52.512;13.450;2022-07-19T00:22:16;21.40;98.30
50556;DHT22;36508;52.512;13.450;2022-07-19T00:24:42;21.30;98.30
50556;DHT22;36508;52.512;13.450;2022-07-19T00:27:07;21.40;98.50
50556;DHT22;36508;52.512;13.450;2022-07-19T00:29:33;21.30;98.60
50556;DHT22;36508;52.512;13.450;2022-07-19T00:31:59;21.30;98.90
50556;DHT22;36508;52.512;13.450;2022-07-19T00:34:24;21.20;99.00
50556;DHT22;36508;52.512;13.450;2022-07-19T00:36:50;21.30;99.20
50556;DHT22;36508;52.512;13.450;2022-07-19T00:39:16;21.20;99.20
50556;DHT22;36508;52.512;13.450;2022-07-19T00:41:43;21.10;99.50
50556;DHT22;36508;52.512;13.450;2022-07-19T00:44:10;21.10;99.70
50556;DHT22;36508;52.512;13.450;2022-07-19T00:46:36;21.00;99.90
50556;DHT22;36508;52.512;13.450;2022-07-19T00:49:03;21.00;99.90
50556;DHT22;36508;52.512;13.450;2022-07-19T00:51:29;21.10;99.90
50556;DHT22;36508;52.512;13.450;2022-07-19T00:53:59;21.10;99.90
50556;DHT22;36508;52.512;13.450;2022-07-19T00:56:26;21.10;99.90
50556;DHT22;36508;52.512;13.450;2022-07-19T00:58:53;21.00;99.90
50556;DHT22;36508;52.512;13.450;2022-07-19T01:01:19;21.00;99.90
50556;DHT22;36508;52.512;13.450;2022-07-19T01:03:45;21.00;99.90
50556;DHT22;36508;52.512;13.450;2022-07-19T01:06:11;21.00;99.90
50556;DHT22;36508;52.512;13.450;2022-07-19T01:08:37;21.00;99.90
50556;DHT22;36508;52.512;13.450;2022-07-19T01:11:08;21.00;99.90
50556;DHT22;36508;52.512;13.450;2022-07-19T01:13:34;21.00;99.90
50556;DHT22;36508;52.512;13.450;2022-07-19T01:16:00;20.90;99.90
50556;DHT22;36508;52.512;13.450;2022-07-19T01:18:26;20.90;99.90
50556;DHT22;36508;52.512;13.450;2022-07-19T01:20:52;20.80;99.90
50556;DHT22;36508;52.512;13.450;2022-07-19T01:23:18;20.80;99.90
50556;DHT22;36508;52.512;13.450;2022-07-19T01:25:45;20.80;99.90
50556;DHT22;36508;52.512;13.450;2022-07-19T01:28:11;20.70;99.90
50556;DHT22;36508;52.512;13.450;2022-07-19T01:30:37;20.80;99.90
50556;DHT22;36508;52.512;13.450;2022-07-19T01:33:03;20.70;99.90
50556;DHT22;36508;52.512;13.450;2022-07-19T01:35:30;20.70;99.90
50556;DHT22;36508;52.512;13.450;2022-07-19T01:37:55;20.80;99.90
50556;DHT22;36508;52.512;13.450;2022-07-19T01:40:22;20.70;99.90
50556;DHT22;36508;52.512;13.450;2022-07-19T01:42:48;20.70;99.90
50556;DHT22;36508;52.512;13.450;2022-07-19T01:45:15;20.60;99.90
50556;DHT22;36508;52.512;13.450;2022-07-19T01:47:42;20.60;99.90
50556;DHT22;36508;52.512;13.450;2022-07-19T01:50:10;20.60;99.90
50556;DHT22;36508;52.512;13.450;2022-07-19T01:52:36;20.60;99.90
50556;DHT22;36508;52.512;13.450;2022-07-19T01:55:03;20.60;99.90
50556;DHT22;36508;52.512;13.450;2022-07-19T01:57:29;20.60;99.90
50556;DHT22;36508;52.512;13.450;2022-07-19T01:59:56;20.60;99.90
50556;DHT22;36508;52.512;13.450;2022-07-19T02:02:22;20.60;99.90
50556;DHT22;36508;52.512;13.450;2022-07-19T02:04:48;20.60;99.90
50556;DHT22;36508;52.512;13.450;2022-07-19T02:07:14;20.50;99.90
50556;DHT22;36508;52.512;13.450;2022-07-19T02:09:40;20.40;99.90
50556;DHT22;36508;52.512;13.450;2022-07-19T02:12:06;20.50;99.90
50556;DHT22;36508;52.512;13.450;2022-07-19T02:14:32;20.50;99.90
50556;DHT22;36508;52.512;13.450;2022-07-19T02:16:58;20.40;99.90
50556;DHT22;36508;52.512;13.450;2022-07-19T02:19:24;20.40;99.90
50556;DHT22;36508;52.512;13.450;2022-07-19T02:21:50;20.40;99.90
50556;DHT22;36508;52.512;13.450;2022-07-19T02:24:16;20.30;99.90
50556;DHT22;36508;52.512;13.450;2022-07-19T02:26:41;20.30;99.90
50556;DHT22;36508;52.512;13.450;2022-07-19T02:29:07;20.30;99.90
50556;DHT22;36508;52.512;13.450;2022-07-19T02:31:33;20.30;99.90
50556;DHT22;36508;52.512;13.450;2022-07-19T02:33:59;20.20;99.90
50556;DHT22;36508;52.512;13.450;2022-07-19T02:36:25;20.20;99.90
50556;DHT22;36508;52.512;13.450;2022-07-19T02:38:51;20.20;99.90
50556;DHT22;36508;52.512;13.450;2022-07-19T02:41:17;20.20;99.90
50556;DHT22;36508;52.512;13.450;2022-07-19T02:43:43;20.20;99.90
50556;DHT22;36508;52.512;13.450;2022-07-19T02:46:09;20.10;99.90
50556;DHT22;36508;52.512;13.450;2022-07-19T02:48:35;20.20;99.90
50556;DHT22;36508;52.512;13.450;2022-07-19T02:51:01;20.20;99.90
50556;DHT22;36508;52.512;13.450;2022-07-19T02:53:26;20.10;99.90
50556;DHT22;36508;52.512;13.450;2022-07-19T02:55:52;20.10;99.90
50556;DHT22;36508;52.512;13.450;2022-07-19T02:58:18;20.10;99.90
50556;DHT22;36508;52.512;13.450;2022-07-19T03:00:44;20.10;99.90
50556;DHT22;36508;52.512;13.450;2022-07-19T03:03:09;20.10;99.90
50556;DHT22;36508;52.512;13.450;2022-07-19T03:06:01;20.00;99.90
50556;DHT22;36508;52.512;13.450;2022-07-19T03:08:27;20.00;99.90
50556;DHT22;36508;52.512;13.450;2022-07-19T03:10:52;19.90;99.90
50556;DHT22;36508;52.512;13.450;2022-07-19T03:13:18;20.00;99.90
50556;DHT22;36508;52.512;13.450;2022-07-19T03:15:44;19.90;99.90
50556;DHT22;36508;52.512;13.450;2022-07-19T03:18:09;19.90;99.90
50556;DHT22;36508;52.512;13.450;2022-07-19T03:20:35;19.90;99.90
50556;DHT22;36508;52.512;13.450;2022-07-19T03:23:01;19.80;99.90
50556;DHT22;36508;52.512;13.450;2022-07-19T03:25:27;19.90;99.90
50556;DHT22;36508;52.512;13.450;2022-07-19T03:27:53;19.90;99.90
50556;DHT22;36508;52.512;13.450;2022-07-19T03:30:19;19.90;99.90
50556;DHT22;36508;52.512;13.450;2022-07-19T03:32:45;19.90;99.90
50556;DHT22;36508;52.512;13.450;2022-07-19T03:35:11;19.90;99.90
50556;DHT22;36508;52.512;13.450;2022-07-19T03:37:36;19.80;99.90
50556;DHT22;36508;52.512;13.450;2022-07-19T03:40:03;19.90;99.90
50556;DHT22;36508;52.512;13.450;2022-07-19T03:42:29;19.80;99.90
50556;DHT22;36508;52.512;13.450;2022-07-19T03:44:54;19.80;99.90
50556;DHT22;36508;52.512;13.450;2022-07-19T03:47:20;19.80;99.90
50556;DHT22;36508;52.512;13.450;2022-07-19T03:49:46;19.80;99.90
50556;DHT22;36508;52.512;13.450;2022-07-19T03:52:12;19.80;99.90
50556;DHT22;36508;52.512;13.450;2022-07-19T03:54:39;19.80;99.90
50556;DHT22;36508;52.512;13.450;2022-07-19T03:57:05;19.90;99.90
50556;DHT22;36508;52.512;13.450;2022-07-19T03:59:30;19.90;99.90
50556;DHT22;36508;52.512;13.450;2022-07-19T04:01:56;19.90;99.90
50556;DHT22;36508;52.512;13.450;2022-07-19T04:04:22;19.90;99.90
50556;DHT22;36508;52.512;13.450;2022-07-19T04:06:47;20.00;99.90
50556;DHT22;36508;52.512;13.450;2022-07-19T04:09:13;20.00;99.90
50556;DHT22;36508;52.512;13.450;2022-07-19T04:11:39;20.10;99.90
50556;DHT22;36508;52.512;13.450;2022-07-19T04:14:05;20.10;99.90
50556;DHT22;36508;52.512;13.450;2022-07-19T04:16:30;20.10;99.90
50556;DHT22;36508;52.512;13.450;2022-07-19T04:18:56;20.00;99.90
50556;DHT22;36508;52.512;13.450;2022-07-19T04:21:22;20.00;99.90
50556;DHT22;36508;52.512;13.450;2022-07-19T04:23:47;20.00;99.90
50556;DHT22;36508;52.512;13.450;2022-07-19T04:26:13;20.20;99.90
50556;DHT22;36508;52.512;13.450;2022-07-19T04:28:39;20.20;99.90
50556;DHT22;36508;52.512;13.450;2022-07-19T04:31:05;20.20;99.90
50556;DHT22;36508;52.512;13.450;2022-07-19T04:33:30;20.20;99.90
50556;DHT22;36508;52.512;13.450;2022-07-19T04:35:56;20.20;99.90
50556;DHT22;36508;52.512;13.450;2022-07-19T04:38:23;20.30;99.90
50556;DHT22;36508;52.512;13.450;2022-07-19T04:40:49;20.20;99.90
50556;DHT22;36508;52.512;13.450;2022-07-19T04:43:16;20.20;99.90
50556;DHT22;36508;52.512;13.450;2022-07-19T04:45:42;20.20;99.90
50556;DHT22;36508;52.512;13.450;2022-07-19T04:48:10;20.10;99.90
50556;DHT22;36508;52.512;13.450;2022-07-19T04:50:36;20.20;99.90
50556;DHT22;36508;52.512;13.450;2022-07-19T04:53:03;20.20;99.90
50556;DHT22;36508;52.512;13.450;2022-07-19T04:55:29;20.30;99.90
50556;DHT22;36508;52.512;13.450;2022-07-19T04:57:54;20.30;99.90
50556;DHT22;36508;52.512;13.450;2022-07-19T05:00:20;20.40;99.90
50556;DHT22;36508;52.512;13.450;2022-07-19T05:02:46;20.40;99.90
50556;DHT22;36508;52.512;13.450;2022-07-19T05:05:12;20.30;99.90
50556;DHT22;36508;52.512;13.450;2022-07-19T05:07:40;20.40;99.90
50556;DHT22;36508;52.512;13.450;2022-07-19T05:10:07;21.10;99.90
50556;DHT22;36508;52.512;13.450;2022-07-19T05:12:36;21.70;99.90
50556;DHT22;36508;52.512;13.450;2022-07-19T05:15:02;21.60;99.90
50556;DHT22;36508;52.512;13.450;2022-07-19T05:17:28;21.20;99.90
50556;DHT22;36508;52.512;13.450;2022-07-19T05:19:54;21.00;99.90
50556;DHT22;36508;52.512;13.450;2022-07-19T05:22:20;20.90;99.90
50556;DHT22;36508;52.512;13.450;2022-07-19T05:24:48;20.90;99.90
50556;DHT22;36508;52.512;13.450;2022-07-19T05:27:14;20.90;99.90
50556;DHT22;36508;52.512;13.450;2022-07-19T05:29:40;21.00;99.90
50556;DHT22;36508;52.512;13.450;2022-07-19T05:32:05;21.00;99.90
50556;DHT22;36508;52.512;13.450;2022-07-19T05:34:31;21.10;99.90
50556;DHT22;36508;52.512;13.450;2022-07-19T05:36:57;21.20;99.90
50556;DHT22;36508;52.512;13.450;2022-07-19T05:39:23;21.30;99.90
50556;DHT22;36508;52.512;13.450;2022-07-19T05:41:49;21.30;99.90
50556;DHT22;36508;52.512;13.450;2022-07-19T05:44:17;21.40;99.90
50556;DHT22;36508;52.512;13.450;2022-07-19T05:46:43;21.50;99.90
50556;DHT22;36508;52.512;13.450;2022-07-19T05:49:10;21.50;99.90
50556;DHT22;36508;52.512;13.450;2022-07-19T05:51:36;21.50;99.90
50556;DHT22;36508;52.512;13.450;2022-07-19T05:54:03;21.60;99.90
50556;DHT22;36508;52.512;13.450;2022-07-19T05:56:29;21.60;99.90
50556;DHT22;36508;52.512;13.450;2022-07-19T05:58:55;21.60;99.90
50556;DHT22;36508;52.512;13.450;2022-07-19T06:01:20;21.70;99.90
50556;DHT22;36508;52.512;13.450;2022-07-19T06:03:52;21.70;99.90
50556;DHT22;36508;52.512;13.450;2022-07-19T06:06:19;21.90;99.90
50556;DHT22;36508;52.512;13.450;2022-07-19T06:08:46;22.00;99.90
50556;DHT22;36508;52.512;13.450;2022-07-19T06:11:21;22.00;99.90
50556;DHT22;36508;52.512;13.450;2022-07-19T06:13:49;22.10;99.90
50556;DHT22;36508;52.512;13.450;2022-07-19T06:16:15;22.20;99.90
50556;DHT22;36508;52.512;13.450;2022-07-19T06:18:41;22.20;99.90
50556;DHT22;36508;52.512;13.450;2022-07-19T06:21:08;22.30;99.90
50556;DHT22;36508;52.512;13.450;2022-07-19T06:23:35;22.40;99.90
50556;DHT22;36508;52.512;13.450;2022-07-19T06:26:01;22.40;99.90
50556;DHT22;36508;52.512;13.450;2022-07-19T06:28:27;22.60;99.90
50556;DHT22;36508;52.512;13.450;2022-07-19T06:30:53;22.60;99.90
50556;DHT22;36508;52.512;13.450;2022-07-19T06:33:18;22.80;99.90
50556;DHT22;36508;52.512;13.450;2022-07-19T06:35:44;22.90;99.90
50556;DHT22;36508;52.512;13.450;2022-07-19T06:38:10;22.90;99.90
50556;DHT22;36508;52.512;13.450;2022-07-19T06:40:36;23.10;99.90
50556;DHT22;36508;52.512;13.450;2022-07-19T06:43:01;23.10;99.90
50556;DHT22;36508;52.512;13.450;2022-07-19T06:45:27;23.20;99.90
50556;DHT22;36508;52.512;13.450;2022-07-19T06:47:53;23.20;99.90
50556;DHT22;36508;52.512;13.450;2022-07-19T06:50:19;23.30;99.90
50556;DHT22;36508;52.512;13.450;2022-07-19T06:52:45;23.30;99.90
50556;DHT22;36508;52.512;13.450;2022-07-19T06:55:11;23.30;99.90
50556;DHT22;36508;52.512;13.450;2022-07-19T06:57:37;23.40;99.90
50556;DHT22;36508;52.512;13.450;2022-07-19T07:00:05;23.40;99.90
50556;DHT22;36508;52.512;13.450;2022-07-19T07:02:32;23.50;99.90
50556;DHT22;36508;52.512;13.450;2022-07-19T07:04:58;23.70;99.90
50556;DHT22;36508;52.512;13.450;2022-07-19T07:07:24;23.80;99.70
50556;DHT22;36508;52.512;13.450;2022-07-19T07:09:50;24.00;99.40
50556;DHT22;36508;52.512;13.450;2022-07-19T07:12:16;24.20;98.50
50556;DHT22;36508;52.512;13.450;2022-07-19T07:14:41;24.20;97.90
50556;DHT22;36508;52.512;13.450;2022-07-19T07:17:07;24.20;98.00
50556;DHT22;36508;52.512;13.450;2022-07-19T07:19:33;24.20;97.60
50556;DHT22;36508;52.512;13.450;2022-07-19T07:21:58;24.40;97.30
50556;DHT22;36508;52.512;13.450;2022-07-19T07:24:27;24.40;97.10
50556;DHT22;36508;52.512;13.450;2022-07-19T07:26:53;24.30;97.40
50556;DHT22;36508;52.512;13.450;2022-07-19T07:29:19;24.40;97.40
50556;DHT22;36508;52.512;13.450;2022-07-19T07:31:44;24.50;96.50
50556;DHT22;36508;52.512;13.450;2022-07-19T07:34:10;24.60;96.60
50556;DHT22;36508;52.512;13.450;2022-07-19T07:36:36;24.70;96.30
50556;DHT22;36508;52.512;13.450;2022-07-19T07:39:02;24.80;96.10
50556;DHT22;36508;52.512;13.450;2022-07-19T07:41:28;25.20;95.60
50556;DHT22;36508;52.512;13.450;2022-07-19T07:43:54;25.10;95.60
50556;DHT22;36508;52.512;13.450;2022-07-19T07:46:19;25.00;94.90
50556;DHT22;36508;52.512;13.450;2022-07-19T07:48:47;25.00;95.30
50556;DHT22;36508;52.512;13.450;2022-07-19T07:51:12;25.00;94.90
50556;DHT22;36508;52.512;13.450;2022-07-19T07:53:38;25.00;94.10
50556;DHT22;36508;52.512;13.450;2022-07-19T07:56:04;25.20;93.80
50556;DHT22;36508;52.512;13.450;2022-07-19T07:58:30;25.30;93.70
50556;DHT22;36508;52.512;13.450;2022-07-19T08:00:56;25.40;93.90
50556;DHT22;36508;52.512;13.450;2022-07-19T08:03:22;25.70;93.90
50556;DHT22;36508;52.512;13.450;2022-07-19T08:05:48;25.80;93.30
50556;DHT22;36508;52.512;13.450;2022-07-19T08:08:15;25.90;92.60
50556;DHT22;36508;52.512;13.450;2022-07-19T08:10:40;26.00;92.00
50556;DHT22;36508;52.512;13.450;2022-07-19T08:13:06;25.90;92.10
50556;DHT22;36508;52.512;13.450;2022-07-19T08:15:34;25.90;92.30
50556;DHT22;36508;52.512;13.450;2022-07-19T08:18:00;25.90;92.60
50556;DHT22;36508;52.512;13.450;2022-07-19T08:20:26;26.00;91.80
50556;DHT22;36508;52.512;13.450;2022-07-19T08:22:52;26.10;91.80
50556;DHT22;36508;52.512;13.450;2022-07-19T08:25:17;26.50;91.30
50556;DHT22;36508;52.512;13.450;2022-07-19T08:27:44;26.50;91.30
50556;DHT22;36508;52.512;13.450;2022-07-19T08:30:10;26.60;91.30
50556;DHT22;36508;52.512;13.450;2022-07-19T08:32:38;26.80;90.90
50556;DHT22;36508;52.512;13.450;2022-07-19T08:35:05;27.00;89.60
50556;DHT22;36508;52.512;13.450;2022-07-19T08:37:31;27.10;89.10
50556;DHT22;36508;52.512;13.450;2022-07-19T08:39:57;27.10;89.20
50556;DHT22;36508;52.512;13.450;2022-07-19T08:42:23;27.10;90.00
50556;DHT22;36508;52.512;13.450;2022-07-19T08:44:52;27.20;89.20
50556;DHT22;36508;52.512;13.450;2022-07-19T08:47:21;27.20;86.80
50556;DHT22;36508;52.512;13.450;2022-07-19T08:49:48;27.40;87.40
50556;DHT22;36508;52.512;13.450;2022-07-19T08:52:14;27.50;86.60
50556;DHT22;36508;52.512;13.450;2022-07-19T08:54:41;27.70;87.10
50556;DHT22;36508;52.512;13.450;2022-07-19T08:57:07;27.80;87.90
50556;DHT22;36508;52.512;13.450;2022-07-19T08:59:51;28.00;84.70
50556;DHT22;36508;52.512;13.450;2022-07-19T09:02:17;28.10;85.20
50556;DHT22;36508;52.512;13.450;2022-07-19T09:04:43;28.10;84.10
50556;DHT22;36508;52.512;13.450;2022-07-19T09:07:09;28.20;82.60
50556;DHT22;36508;52.512;13.450;2022-07-19T09:09:37;28.30;82.70
50556;DHT22;36508;52.512;13.450;2022-07-19T09:12:04;28.40;82.30
50556;DHT22;36508;52.512;13.450;2022-07-19T09:14:35;28.40;82.40
50556;DHT22;36508;52.512;13.450;2022-07-19T09:19:32;28.30;80.50
50556;DHT22;36508;52.512;13.450;2022-07-19T09:22:07;28.30;81.00
50556;DHT22;36508;52.512;13.450;2022-07-19T09:24:35;28.40;80.30
50556;DHT22;36508;52.512;13.450;2022-07-19T09:27:02;28.50;80.20
50556;DHT22;36508;52.512;13.450;2022-07-19T09:29:30;28.50;79.30
50556;DHT22;36508;52.512;13.450;2022-07-19T09:37:12;28.90;77.70
50556;DHT22;36508;52.512;13.450;2022-07-19T09:39:40;29.20;75.20
50556;DHT22;36508;52.512;13.450;2022-07-19T09:42:13;29.10;76.00
50556;DHT22;36508;52.512;13.450;2022-07-19T09:44:38;28.90;76.50
50556;DHT22;36508;52.512;13.450;2022-07-19T09:47:04;29.00;75.50
50556;DHT22;36508;52.512;13.450;2022-07-19T09:49:30;29.30;73.10
50556;DHT22;36508;52.512;13.450;2022-07-19T09:51:55;29.50;72.20
50556;DHT22;36508;52.512;13.450;2022-07-19T09:54:26;29.60;71.50
50556;DHT22;36508;52.512;13.450;2022-07-19T09:56:53;29.70;71.10
50556;DHT22;36508;52.512;13.450;2022-07-19T09:59:20;29.70;70.90
50556;DHT22;36508;52.512;13.450;2022-07-19T10:01:47;29.90;70.70
50556;DHT22;36508;52.512;13.450;2022-07-19T10:04:19;30.00;70.70
50556;DHT22;36508;52.512;13.450;2022-07-19T10:06:47;29.80;71.30
50556;DHT22;36508;52.512;13.450;2022-07-19T10:09:15;29.70;71.70
50556;DHT22;36508;52.512;13.450;2022-07-19T10:11:42;29.80;71.60
50556;DHT22;36508;52.512;13.450;2022-07-19T10:14:08;30.00;70.70
50556;DHT22;36508;52.512;13.450;2022-07-19T10:16:55;30.20;69.10
50556;DHT22;36508;52.512;13.450;2022-07-19T10:19:39;30.30;69.80
50556;DHT22;36508;52.512;13.450;2022-07-19T10:22:17;30.40;67.90
50556;DHT22;36508;52.512;13.450;2022-07-19T10:24:46;30.50;68.50
50556;DHT22;36508;52.512;13.450;2022-07-19T10:27:18;30.60;69.90
50556;DHT22;36508;52.512;13.450;2022-07-19T10:29:44;30.90;67.50
50556;DHT22;36508;52.512;13.450;2022-07-19T10:32:12;31.00;67.30
50556;DHT22;36508;52.512;13.450;2022-07-19T10:34:39;31.10;66.00
50556;DHT22;36508;52.512;13.450;2022-07-19T10:37:05;31.10;65.40
50556;DHT22;36508;52.512;13.450;2022-07-19T10:39:33;31.20;63.60
50556;DHT22;36508;52.512;13.450;2022-07-19T10:42:13;31.30;62.70
50556;DHT22;36508;52.512;13.450;2022-07-19T10:52:34;38.60;54.60
50556;DHT22;36508;52.512;13.450;2022-07-19T10:57:53;41.90;47.10
50556;DHT22;36508;52.512;13.450;2022-07-19T11:00:44;40.60;44.30
50556;DHT22;36508;52.512;13.450;2022-07-19T11:05:59;40.10;42.60
50556;DHT22;36508;52.512;13.450;2022-07-19T11:08:39;41.40;42.40
50556;DHT22;36508;52.512;13.450;2022-07-19T11:11:07;42.00;39.20
50556;DHT22;36508;52.512;13.450;2022-07-19T11:13:34;43.80;38.50
50556;DHT22;36508;52.512;13.450;2022-07-19T11:16:01;44.30;38.60
50556;DHT22;36508;52.512;13.450;2022-07-19T11:18:29;44.80;37.80
50556;DHT22;36508;52.512;13.450;2022-07-19T11:20:59;44.60;37.20
50556;DHT22;36508;52.512;13.450;2022-07-19T11:23:29;44.80;37.20
50556;DHT22;36508;52.512;13.450;2022-07-19T11:28:44;44.70;36.10
50556;DHT22;36508;52.512;13.450;2022-07-19T11:31:22;46.10;35.10
50556;DHT22;36508;52.512;13.450;2022-07-19T11:33:51;46.40;34.70
50556;DHT22;36508;52.512;13.450;2022-07-19T11:36:19;45.70;34.70
50556;DHT22;36508;52.512;13.450;2022-07-19T11:38:50;46.00;34.10
50556;DHT22;36508;52.512;13.450;2022-07-19T11:41:30;47.20;32.70
50556;DHT22;36508;52.512;13.450;2022-07-19T11:44:06;47.10;32.90
50556;DHT22;36508;52.512;13.450;2022-07-19T11:46:38;46.70;33.50
50556;DHT22;36508;52.512;13.450;2022-07-19T11:49:07;46.40;31.70
50556;DHT22;36508;52.512;13.450;2022-07-19T11:51:35;46.50;30.40
50556;DHT22;36508;52.512;13.450;2022-07-19T11:54:03;46.40;31.10
50556;DHT22;36508;52.512;13.450;2022-07-19T11:56:31;46.00;30.30
50556;DHT22;36508;52.512;13.450;2022-07-19T11:59:00;45.20;31.10
50556;DHT22;36508;52.512;13.450;2022-07-19T12:01:28;43.60;31.50
50556;DHT22;36508;52.512;13.450;2022-07-19T12:03:59;42.70;32.50
50556;DHT22;36508;52.512;13.450;2022-07-19T12:06:43;40.70;33.80
50556;DHT22;36508;52.512;13.450;2022-07-19T12:09:14;39.20;34.50
50556;DHT22;36508;52.512;13.450;2022-07-19T12:17:08;38.10;36.30
50556;DHT22;36508;52.512;13.450;2022-07-19T12:19:39;37.80;36.90
50556;DHT22;36508;52.512;13.450;2022-07-19T12:22:05;38.00;37.10
50556;DHT22;36508;52.512;13.450;2022-07-19T12:24:42;38.90;36.50
50556;DHT22;36508;52.512;13.450;2022-07-19T12:27:08;38.80;35.60
50556;DHT22;36508;52.512;13.450;2022-07-19T12:32:07;40.40;35.70
50556;DHT22;36508;52.512;13.450;2022-07-19T12:34:50;41.00;35.00
50556;DHT22;36508;52.512;13.450;2022-07-19T12:42:25;37.80;36.10
50556;DHT22;36508;52.512;13.450;2022-07-19T12:44:51;36.80;37.40
50556;DHT22;36508;52.512;13.450;2022-07-19T12:47:17;37.00;38.20
50556;DHT22;36508;52.512;13.450;2022-07-19T12:49:45;37.20;37.90
50556;DHT22;36508;52.512;13.450;2022-07-19T12:52:11;37.00;37.20
50556;DHT22;36508;52.512;13.450;2022-07-19T12:54:37;36.80;38.40
50556;DHT22;36508;52.512;13.450;2022-07-19T12:57:03;36.20;37.40
50556;DHT22;36508;52.512;13.450;2022-07-19T12:59:30;36.00;38.30
50556;DHT22;36508;52.512;13.450;2022-07-19T13:02:05;35.60;38.90
50556;DHT22;36508;52.512;13.450;2022-07-19T13:04:31;35.50;39.30
50556;DHT22;36508;52.512;13.450;2022-07-19T13:06:57;35.60;38.80
50556;DHT22;36508;52.512;13.450;2022-07-19T13:09:22;35.40;39.10
50556;DHT22;36508;52.512;13.450;2022-07-19T13:11:48;35.20;39.50
50556;DHT22;36508;52.512;13.450;2022-07-19T13:14:14;35.70;39.10
50556;DHT22;36508;52.512;13.450;2022-07-19T13:16:40;35.60;38.70
50556;DHT22;36508;52.512;13.450;2022-07-19T13:19:06;35.70;38.90
50556;DHT22;36508;52.512;13.450;2022-07-19T13:21:32;35.80;39.30
50556;DHT22;36508;52.512;13.450;2022-07-19T13:23:58;35.90;39.20
50556;DHT22;36508;52.512;13.450;2022-07-19T13:26:24;36.00;38.90
50556;DHT22;36508;52.512;13.450;2022-07-19T13:28:49;36.00;38.90
50556;DHT22;36508;52.512;13.450;2022-07-19T13:31:15;35.70;39.10
50556;DHT22;36508;52.512;13.450;2022-07-19T13:33:41;35.40;39.90
50556;DHT22;36508;52.512;13.450;2022-07-19T13:36:07;35.50;39.60
50556;DHT22;36508;52.512;13.450;2022-07-19T13:38:32;35.50;39.20
50556;DHT22;36508;52.512;13.450;2022-07-19T13:40:58;35.40;39.30
50556;DHT22;36508;52.512;13.450;2022-07-19T13:43:24;35.30;39.50
50556;DHT22;36508;52.512;13.450;2022-07-19T13:45:49;35.40;39.70
50556;DHT22;36508;52.512;13.450;2022-07-19T13:48:16;35.70;39.30
50556;DHT22;36508;52.512;13.450;2022-07-19T13:50:41;36.10;38.60
50556;DHT22;36508;52.512;13.450;2022-07-19T13:53:07;36.30;38.60
50556;DHT22;36508;52.512;13.450;2022-07-19T13:55:33;36.20;38.60
50556;DHT22;36508;52.512;13.450;2022-07-19T13:57:59;36.00;38.40
50556;DHT22;36508;52.512;13.450;2022-07-19T14:00:24;36.00;38.90
50556;DHT22;36508;52.512;13.450;2022-07-19T14:02:50;36.00;39.60
50556;DHT22;36508;52.512;13.450;2022-07-19T14:05:16;36.10;38.90
50556;DHT22;36508;52.512;13.450;2022-07-19T14:07:42;35.70;39.40
50556;DHT22;36508;52.512;13.450;2022-07-19T14:10:08;35.60;39.00
50556;DHT22;36508;52.512;13.450;2022-07-19T14:12:34;35.50;39.70
50556;DHT22;36508;52.512;13.450;2022-07-19T14:15:00;35.60;39.30
50556;DHT22;36508;52.512;13.450;2022-07-19T14:17:26;35.70;39.20
50556;DHT22;36508;52.512;13.450;2022-07-19T14:19:51;35.90;39.10
50556;DHT22;36508;52.512;13.450;2022-07-19T14:22:17;36.00;38.70
50556;DHT22;36508;52.512;13.450;2022-07-19T14:24:43;35.90;38.80
50556;DHT22;36508;52.512;13.450;2022-07-19T14:27:09;35.80;38.90
50556;DHT22;36508;52.512;13.450;2022-07-19T14:29:35;35.70;38.30
50556;DHT22;36508;52.512;13.450;2022-07-19T14:32:01;35.60;38.70
50556;DHT22;36508;52.512;13.450;2022-07-19T14:34:27;35.60;39.40
50556;DHT22;36508;52.512;13.450;2022-07-19T14:36:53;35.80;38.70
50556;DHT22;36508;52.512;13.450;2022-07-19T14:39:19;36.10;38.00
50556;DHT22;36508;52.512;13.450;2022-07-19T14:41:45;36.00;38.10
50556;DHT22;36508;52.512;13.450;2022-07-19T14:44:11;36.20;37.90
50556;DHT22;36508;52.512;13.450;2022-07-19T14:46:37;35.90;37.50
50556;DHT22;36508;52.512;13.450;2022-07-19T14:49:02;35.70;37.70
50556;DHT22;36508;52.512;13.450;2022-07-19T14:51:28;35.70;37.80
50556;DHT22;36508;52.512;13.450;2022-07-19T14:53:54;35.60;38.40
50556;DHT22;36508;52.512;13.450;2022-07-19T14:56:20;35.90;38.20
50556;DHT22;36508;52.512;13.450;2022-07-19T14:58:46;36.00;37.30
50556;DHT22;36508;52.512;13.450;2022-07-19T15:01:12;36.10;37.50
50556;DHT22;36508;52.512;13.450;2022-07-19T15:03:38;36.10;38.40
50556;DHT22;36508;52.512;13.450;2022-07-19T15:06:04;35.80;37.20
50556;DHT22;36508;52.512;13.450;2022-07-19T15:08:30;35.80;37.20
50556;DHT22;36508;52.512;13.450;2022-07-19T15:10:56;35.90;37.50
50556;DHT22;36508;52.512;13.450;2022-07-19T15:13:22;36.00;38.00
50556;DHT22;36508;52.512;13.450;2022-07-19T15:15:48;36.10;38.70
50556;DHT22;36508;52.512;13.450;2022-07-19T15:18:14;36.30;38.90
50556;DHT22;36508;52.512;13.450;2022-07-19T15:20:40;36.20;38.70
50556;DHT22;36508;52.512;13.450;2022-07-19T15:23:06;36.20;38.40
50556;DHT22;36508;52.512;13.450;2022-07-19T15:25:32;36.30;38.70
50556;DHT22;36508;52.512;13.450;2022-07-19T15:27:58;36.30;39.10
50556;DHT22;36508;52.512;13.450;2022-07-19T15:30:24;36.80;37.60
50556;DHT22;36508;52.512;13.450;2022-07-19T15:32:50;37.00;37.90
50556;DHT22;36508;52.512;13.450;2022-07-19T15:35:16;37.30;38.10
50556;DHT22;36508;52.512;13.450;2022-07-19T15:37:41;37.80;36.50
50556;DHT22;36508;52.512;13.450;2022-07-19T15:40:08;38.60;36.50
50556;DHT22;36508;52.512;13.450;2022-07-19T15:42:50;39.30;36.60
50556;DHT22;36508;52.512;13.450;2022-07-19T15:45:16;40.60;34.90
50556;DHT22;36508;52.512;13.450;2022-07-19T15:47:43;41.30;34.00
50556;DHT22;36508;52.512;13.450;2022-07-19T15:50:11;41.50;35.10